createdAt,value
2022-10-22T00:01:20.672Z,10.37
2022-10-22T00:03:47.518Z,12.13
2022-10-22T00:06:14.289Z,15.63
2022-10-22T00:09:20.225Z,13.00
2022-10-22T00:11:47.162Z,15.07
2022-10-22T00:14:14.022Z,12.17
2022-10-22T00:16:40.863Z,13.13
2022-10-22T00:19:09.360Z,14.07
2022-10-22T00:21:36.433Z,17.53
2022-10-22T00:24:03.242Z,15.83
2022-10-22T00:26:30.074Z,11.33
2022-10-22T00:28:56.950Z,14.80
2022-10-22T00:31:23.707Z,13.80
2022-10-22T00:33:50.886Z,12.77
2022-10-22T00:36:17.625Z,18.07
2022-10-22T00:38:44.657Z,11.80
2022-10-22T00:41:11.443Z,13.40
2022-10-22T00:43:56.631Z,13.33
2022-10-22T00:46:23.633Z,13.93
2022-10-22T00:48:50.724Z,10.80
2022-10-22T00:51:17.783Z,13.87
2022-10-22T00:53:46.803Z,12.97
2022-10-22T00:56:14.202Z,14.53
2022-10-22T00:58:43.920Z,14.57
2022-10-22T01:01:14.258Z,13.50
2022-10-22T01:03:41.163Z,12.00
2022-10-22T01:06:08.202Z,11.63
2022-10-22T01:08:35.165Z,15.07
2022-10-22T01:11:04.755Z,15.43
2022-10-22T01:13:50.219Z,17.77
2022-10-22T01:16:23.076Z,13.87
2022-10-22T01:19:11.566Z,13.00
2022-10-22T01:21:42.663Z,12.10
2022-10-22T01:24:20.509Z,15.97
2022-10-22T01:27:06.220Z,15.40
2022-10-22T01:29:42.070Z,13.63
2022-10-22T01:32:14.164Z,18.27
2022-10-22T01:34:43.506Z,13.20
2022-10-22T01:37:12.467Z,19.67
2022-10-22T01:39:40.664Z,13.63
2022-10-22T01:42:07.514Z,10.53
2022-10-22T01:47:26.455Z,14.80
2022-10-22T01:49:59.348Z,18.67
2022-10-22T01:52:46.083Z,14.47
2022-10-22T01:55:22.703Z,15.40
2022-10-22T01:57:53.875Z,13.90
2022-10-22T02:00:20.942Z,13.47
2022-10-22T02:03:02.372Z,15.93
2022-10-22T02:05:33.298Z,15.73
2022-10-22T02:08:04.693Z,10.03
2022-10-22T02:10:31.915Z,14.17
2022-10-22T02:13:00.178Z,14.60
2022-10-22T02:15:27.824Z,14.33
2022-10-22T02:17:56.245Z,15.20
2022-10-22T02:20:26.191Z,13.13
2022-10-22T02:22:53.307Z,12.33
2022-10-22T02:25:21.827Z,16.77
2022-10-22T02:27:54.949Z,15.47
2022-10-22T02:30:23.563Z,13.93
2022-10-22T02:32:50.398Z,12.43
2022-10-22T02:35:19.642Z,14.63
2022-10-22T02:37:47.175Z,14.07
2022-10-22T02:40:14.069Z,18.00
2022-10-22T02:42:42.523Z,18.37
2022-10-22T02:45:09.803Z,17.47
2022-10-22T02:47:36.703Z,15.43
2022-10-22T02:50:06.529Z,14.43
2022-10-22T02:52:36.323Z,12.10
2022-10-22T02:55:03.398Z,14.87
2022-10-22T02:57:30.220Z,11.43
2022-10-22T02:59:56.987Z,12.60
2022-10-22T03:02:24.053Z,13.80
2022-10-22T03:04:50.849Z,14.47
2022-10-22T03:07:17.749Z,13.13
2022-10-22T03:09:44.555Z,16.30
2022-10-22T03:12:11.427Z,13.63
2022-10-22T03:14:38.163Z,14.40
2022-10-22T03:17:05.013Z,14.57
2022-10-22T03:19:31.948Z,14.90
2022-10-22T03:22:03.309Z,13.40
2022-10-22T03:24:38.468Z,19.90
2022-10-22T03:27:05.243Z,13.80
2022-10-22T03:29:33.412Z,18.87
2022-10-22T03:32:00.247Z,14.70
2022-10-22T03:34:27.253Z,17.67
2022-10-22T03:36:54.633Z,14.67
2022-10-22T03:39:21.900Z,12.20
2022-10-22T03:41:49.526Z,16.10
2022-10-22T03:44:17.022Z,12.70
2022-10-22T03:46:44.066Z,13.37
2022-10-22T03:49:10.933Z,18.67
2022-10-22T03:51:37.758Z,20.57
2022-10-22T03:54:04.719Z,14.33
2022-10-22T03:56:31.657Z,17.20
2022-10-22T03:58:59.007Z,17.97
2022-10-22T04:01:26.468Z,14.50
2022-10-22T04:03:53.547Z,21.70
2022-10-22T04:06:20.334Z,13.67
2022-10-22T04:08:47.202Z,14.50
2022-10-22T04:11:14.538Z,17.03
2022-10-22T04:13:41.460Z,15.07
2022-10-22T04:16:10.997Z,10.70
2022-10-22T04:18:38.092Z,13.90
2022-10-22T04:21:05.361Z,14.13
2022-10-22T04:23:32.225Z,13.80
2022-10-22T04:25:59.696Z,14.73
2022-10-22T04:28:26.541Z,15.83
2022-10-22T04:30:53.531Z,13.00
2022-10-22T04:33:20.305Z,15.07
2022-10-22T04:35:47.476Z,15.10
2022-10-22T04:38:14.398Z,13.53
2022-10-22T04:40:41.311Z,15.60
2022-10-22T04:43:08.163Z,13.63
2022-10-22T04:45:35.665Z,14.70
2022-10-22T04:48:02.720Z,16.00
2022-10-22T04:50:30.139Z,13.53
2022-10-22T04:52:56.968Z,15.10
2022-10-22T04:55:23.873Z,16.33
2022-10-22T04:57:50.735Z,16.53
2022-10-22T05:00:17.642Z,15.73
2022-10-22T05:02:48.839Z,14.50
2022-10-22T05:05:15.665Z,13.50
2022-10-22T05:07:42.767Z,12.43
2022-10-22T05:10:10.082Z,12.33
2022-10-22T05:12:36.991Z,12.73
2022-10-22T05:15:03.889Z,12.23
2022-10-22T05:17:31.133Z,14.43
2022-10-22T05:19:57.854Z,12.80
2022-10-22T05:22:24.703Z,14.13
2022-10-22T05:24:51.488Z,13.73
2022-10-22T05:29:46.060Z,13.10
2022-10-22T05:32:13.175Z,13.73
2022-10-22T05:34:39.962Z,13.77
2022-10-22T05:37:06.924Z,14.70
2022-10-22T05:39:37.410Z,15.67
2022-10-22T05:42:04.215Z,17.83
2022-10-22T05:44:30.969Z,17.77
2022-10-22T05:46:57.793Z,19.23
2022-10-22T05:49:24.735Z,12.23
2022-10-22T05:51:51.560Z,16.77
2022-10-22T05:54:19.983Z,16.47
2022-10-22T05:56:46.794Z,16.60
2022-10-22T05:59:13.586Z,19.43
2022-10-22T06:01:40.745Z,13.87
2022-10-22T06:04:08.450Z,15.40
2022-10-22T06:06:40.124Z,13.70
2022-10-22T06:09:08.108Z,14.17
2022-10-22T06:11:35.431Z,13.00
2022-10-22T06:14:02.678Z,15.57
2022-10-22T06:16:30.245Z,18.33
2022-10-22T06:18:58.630Z,14.63
2022-10-22T06:21:25.416Z,11.87
2022-10-22T06:23:52.200Z,17.73
2022-10-22T06:26:19.149Z,13.93
2022-10-22T06:28:46.066Z,15.50
2022-10-22T06:31:13.125Z,16.97
2022-10-22T06:33:42.619Z,16.00
2022-10-22T06:36:10.937Z,17.67
2022-10-22T06:38:38.258Z,18.77
2022-10-22T06:41:09.687Z,16.07
2022-10-22T06:43:36.682Z,15.23
2022-10-22T06:46:04.774Z,16.43
2022-10-22T06:48:31.633Z,15.87
2022-10-22T06:51:02.070Z,14.00
2022-10-22T06:53:29.079Z,14.57
2022-10-22T06:55:55.900Z,14.33
2022-10-22T06:58:22.766Z,16.90
2022-10-22T07:00:49.758Z,18.70
2022-10-22T07:03:16.492Z,14.17
2022-10-22T07:05:43.334Z,14.17
2022-10-22T07:08:10.055Z,16.60
2022-10-22T07:10:36.871Z,16.23
2022-10-22T07:13:03.858Z,16.80
2022-10-22T07:15:30.649Z,14.33
2022-10-22T07:17:57.581Z,13.60
2022-10-22T07:20:24.527Z,15.27
2022-10-22T07:22:51.463Z,14.50
2022-10-22T07:25:18.202Z,12.67
2022-10-22T07:27:45.160Z,15.57
2022-10-22T07:30:12.081Z,11.37
2022-10-22T07:32:38.831Z,18.63
2022-10-22T07:35:05.893Z,14.53
2022-10-22T07:37:32.656Z,13.87
2022-10-22T07:40:02.997Z,14.50
2022-10-22T07:42:31.033Z,13.67
2022-10-22T07:44:57.761Z,15.80
2022-10-22T07:47:24.664Z,15.30
2022-10-22T07:49:51.424Z,12.03
2022-10-22T07:52:19.326Z,13.20
2022-10-22T07:54:46.390Z,13.93
2022-10-22T07:57:13.115Z,18.23
2022-10-22T07:59:40.025Z,13.03
2022-10-22T08:02:07.264Z,13.93
2022-10-22T08:04:34.234Z,14.37
2022-10-22T08:07:01.023Z,14.43
2022-10-22T08:09:27.843Z,15.67
2022-10-22T08:11:54.941Z,18.17
2022-10-22T08:14:22.107Z,14.50
2022-10-22T08:16:49.000Z,20.40
2022-10-22T08:19:19.005Z,13.60
2022-10-22T08:21:46.373Z,13.23
2022-10-22T08:24:13.759Z,12.83
2022-10-22T08:26:40.920Z,15.33
2022-10-22T08:29:08.199Z,11.93
2022-10-22T08:31:35.147Z,15.07
2022-10-22T08:34:01.994Z,15.07
2022-10-22T08:36:28.830Z,15.23
2022-10-22T08:38:55.676Z,15.20
2022-10-22T08:41:23.514Z,13.53
2022-10-22T08:43:50.289Z,18.63
2022-10-22T08:46:32.188Z,13.63
2022-10-22T08:49:00.741Z,15.37
2022-10-22T08:51:30.458Z,14.47
2022-10-22T08:54:00.325Z,16.53
2022-10-22T08:56:27.090Z,14.20
2022-10-22T08:58:57.472Z,14.23
2022-10-22T09:01:31.740Z,14.23
2022-10-22T09:04:04.788Z,14.93
2022-10-22T09:06:32.959Z,12.50
2022-10-22T09:09:00.646Z,14.20
2022-10-22T09:11:27.583Z,15.80
2022-10-22T09:13:55.457Z,12.77
2022-10-22T09:16:26.474Z,15.30
2022-10-22T09:19:11.957Z,14.57
2022-10-22T09:22:02.056Z,16.07
2022-10-22T09:24:47.850Z,13.87
2022-10-22T09:27:16.300Z,12.73
2022-10-22T09:29:43.907Z,15.27
2022-10-22T09:32:10.749Z,15.37
2022-10-22T09:34:37.853Z,21.57
2022-10-22T09:37:06.135Z,21.10
2022-10-22T09:39:34.530Z,18.27
2022-10-22T09:42:01.325Z,16.40
2022-10-22T09:44:28.417Z,16.83
2022-10-22T09:46:55.208Z,12.27
2022-10-22T09:49:23.462Z,14.27
2022-10-22T09:51:50.402Z,12.47
2022-10-22T09:54:19.263Z,18.30
2022-10-22T09:57:09.320Z,12.97
2022-10-22T09:59:41.488Z,15.47
2022-10-22T10:02:20.429Z,14.70
2022-10-22T10:04:55.447Z,15.80
2022-10-22T10:07:24.112Z,18.57
2022-10-22T10:09:52.077Z,20.87
2022-10-22T10:12:28.158Z,15.13
2022-10-22T10:15:03.881Z,13.53
2022-10-22T10:17:33.757Z,16.77
2022-10-22T10:20:15.785Z,13.67
2022-10-22T10:23:14.813Z,15.40
2022-10-22T10:25:59.648Z,15.77
2022-10-22T10:28:45.130Z,15.63
2022-10-22T10:31:28.532Z,13.20
2022-10-22T10:34:03.075Z,15.13
2022-10-22T10:36:38.815Z,17.57
2022-10-22T10:39:05.587Z,15.30
2022-10-22T10:41:47.668Z,14.57
2022-10-22T10:44:14.481Z,16.57
2022-10-22T10:46:41.334Z,18.13
2022-10-22T10:49:20.380Z,16.73
2022-10-22T10:51:53.523Z,21.50
2022-10-22T10:54:46.984Z,15.43
2022-10-22T10:57:13.760Z,28.07
2022-10-22T10:59:40.570Z,15.30
2022-10-22T11:02:22.628Z,18.47
2022-10-22T11:05:08.950Z,14.03
2022-10-22T11:07:39.417Z,17.17
2022-10-22T11:10:19.800Z,17.47
2022-10-22T11:12:50.678Z,16.17
2022-10-22T11:15:29.460Z,17.37
2022-10-22T11:18:16.568Z,18.50
2022-10-22T11:21:09.632Z,15.07
2022-10-22T11:23:40.901Z,16.43
2022-10-22T11:26:14.724Z,15.90
2022-10-22T11:28:43.981Z,17.50
2022-10-22T11:31:15.023Z,19.57
2022-10-22T11:33:57.316Z,17.17
2022-10-22T11:39:05.042Z,18.03
2022-10-22T11:41:33.045Z,17.30
2022-10-22T11:44:09.530Z,19.10
2022-10-22T11:46:56.933Z,16.23
2022-10-22T11:49:28.039Z,16.13
2022-10-22T11:52:15.025Z,16.30
2022-10-22T11:54:44.619Z,15.33
2022-10-22T11:57:40.888Z,20.10
2022-10-22T12:00:31.472Z,15.40
2022-10-22T12:03:17.146Z,18.80
2022-10-22T12:05:44.674Z,19.87
2022-10-22T12:08:22.653Z,17.13
2022-10-22T12:11:09.805Z,16.33
2022-10-22T12:13:58.705Z,19.33
2022-10-22T12:16:56.607Z,17.97
2022-10-22T12:19:24.154Z,23.17
2022-10-22T12:21:55.280Z,19.13
2022-10-22T12:24:23.421Z,31.27
2022-10-22T12:26:52.805Z,20.13
2022-10-22T12:29:23.018Z,27.30
2022-10-22T12:31:50.021Z,23.17
2022-10-22T12:34:21.451Z,23.67
2022-10-22T12:36:51.272Z,24.57
2022-10-22T12:39:19.224Z,27.70
2022-10-22T12:41:46.925Z,20.30
2022-10-22T12:44:15.101Z,19.27
2022-10-22T12:46:42.840Z,21.93
2022-10-22T12:49:19.221Z,23.27
2022-10-22T12:51:47.158Z,21.13
2022-10-22T12:54:22.164Z,21.10
2022-10-22T12:56:49.813Z,21.90
2022-10-22T12:59:21.698Z,24.37
2022-10-22T13:01:49.518Z,22.70
2022-10-22T13:04:31.545Z,26.43
2022-10-22T13:07:07.425Z,26.57
2022-10-22T13:09:41.879Z,24.47
2022-10-22T13:12:14.884Z,24.70
2022-10-22T13:14:42.795Z,25.87
2022-10-22T13:17:12.942Z,30.17
2022-10-22T13:19:45.943Z,31.23
2022-10-22T13:22:27.836Z,27.57
2022-10-22T13:27:28.650Z,30.17
2022-10-22T13:29:56.552Z,33.83
2022-10-22T13:32:33.861Z,29.93
2022-10-22T13:35:02.013Z,31.97
2022-10-22T13:37:29.781Z,27.90
2022-10-22T13:39:56.736Z,27.90
2022-10-22T13:42:23.606Z,31.53
2022-10-22T13:44:50.362Z,32.90
2022-10-22T13:47:23.195Z,27.77
2022-10-22T13:49:50.038Z,26.73
2022-10-22T13:52:22.808Z,28.87
2022-10-22T13:54:49.777Z,29.20
2022-10-22T13:57:16.528Z,31.13
2022-10-22T13:59:43.483Z,29.60
2022-10-22T14:02:12.491Z,29.20
2022-10-22T14:04:40.416Z,28.73
2022-10-22T14:07:14.961Z,29.27
2022-10-22T14:09:41.785Z,28.17
2022-10-22T14:12:13.077Z,27.50
2022-10-22T14:14:40.154Z,24.60
2022-10-22T14:17:09.283Z,28.90
2022-10-22T14:19:36.049Z,30.73
2022-10-22T14:22:02.912Z,27.73
2022-10-22T14:33:56.066Z,28.97
2022-10-22T14:36:22.839Z,26.40
2022-10-22T14:38:49.695Z,27.60
2022-10-22T14:41:23.517Z,27.47
2022-10-22T14:43:51.020Z,27.23
2022-10-22T14:46:18.268Z,28.83
2022-10-22T14:48:45.376Z,30.03
2022-10-22T14:51:13.791Z,32.70
2022-10-22T14:53:41.032Z,31.07
2022-10-22T14:56:09.358Z,29.03
2022-10-22T14:58:36.224Z,33.20
2022-10-22T15:01:03.255Z,29.10
2022-10-22T15:03:30.563Z,32.00
2022-10-22T15:05:58.051Z,30.50
2022-10-22T15:08:25.546Z,34.30
2022-10-22T15:11:02.534Z,31.00
2022-10-22T15:13:29.953Z,31.50
2022-10-22T15:15:57.423Z,32.27
2022-10-22T15:18:24.535Z,27.80
2022-10-22T15:21:01.502Z,37.17
2022-10-22T15:23:28.614Z,33.63
2022-10-22T15:25:56.033Z,110.33
2022-10-22T15:28:23.011Z,36.87
2022-10-22T15:30:53.618Z,34.97
2022-10-22T15:33:20.619Z,34.70
2022-10-22T15:35:47.686Z,32.03
2022-10-22T15:38:14.501Z,26.70
2022-10-22T15:40:41.309Z,32.30
2022-10-22T15:43:08.457Z,32.93
2022-10-22T15:45:35.527Z,29.23
2022-10-22T15:48:02.246Z,33.70
2022-10-22T15:50:29.108Z,34.33
2022-10-22T15:52:56.529Z,30.20
2022-10-22T15:55:23.464Z,36.03
2022-10-22T15:57:55.174Z,31.07
2022-10-22T16:00:22.958Z,30.70
2022-10-22T16:02:49.842Z,31.00
2022-10-22T16:05:16.599Z,27.10
2022-10-22T16:07:43.763Z,29.60
2022-10-22T16:10:12.978Z,32.00
2022-10-22T16:12:41.621Z,26.47
2022-10-22T16:15:09.378Z,28.67
2022-10-22T16:17:36.404Z,30.83
2022-10-22T16:20:03.299Z,32.40
2022-10-22T16:22:30.188Z,31.33
2022-10-22T16:30:26.924Z,30.00
2022-10-22T16:32:53.750Z,30.83
2022-10-22T16:35:20.495Z,32.47
2022-10-22T16:37:47.356Z,32.20
2022-10-22T16:40:14.350Z,34.30
2022-10-22T16:42:42.199Z,33.93
2022-10-22T16:45:09.290Z,43.50
2022-10-22T16:49:44.411Z,39.97
2022-10-22T16:52:11.254Z,39.20
2022-10-22T16:54:38.022Z,33.23
2022-10-22T16:57:04.788Z,36.53
2022-10-22T16:59:31.692Z,38.47
2022-10-22T17:01:58.501Z,36.23
2022-10-22T17:04:25.420Z,36.63
2022-10-22T17:06:52.275Z,41.30
2022-10-22T17:09:19.219Z,47.97
2022-10-22T17:11:46.532Z,40.93
2022-10-22T17:14:13.514Z,41.00
2022-10-22T17:16:40.319Z,43.30
2022-10-22T17:19:07.122Z,38.00
2022-10-22T17:21:34.310Z,46.60
2022-10-22T17:24:01.136Z,38.73
2022-10-22T17:26:28.546Z,54.97
2022-10-22T17:28:55.446Z,46.23
2022-10-22T17:31:23.571Z,56.03
2022-10-22T17:33:51.293Z,47.63
2022-10-22T17:36:18.909Z,52.50
2022-10-22T17:38:48.000Z,57.90
2022-10-22T17:41:22.299Z,60.93
2022-10-22T17:43:49.437Z,59.67
2022-10-22T17:46:18.176Z,45.93
2022-10-22T17:48:45.048Z,45.33
2022-10-22T17:51:13.108Z,45.93
2022-10-22T17:53:40.710Z,48.17
2022-10-22T17:56:10.267Z,45.83
2022-10-22T17:58:37.098Z,44.17
2022-10-22T18:01:04.187Z,47.83
2022-10-22T18:03:31.086Z,44.20
2022-10-22T18:06:05.022Z,43.33
2022-10-22T18:08:32.020Z,40.70
2022-10-22T18:11:00.070Z,47.10
2022-10-22T18:13:26.896Z,62.27
2022-10-22T18:15:54.246Z,53.60
2022-10-22T18:18:21.174Z,53.50
2022-10-22T18:20:53.912Z,40.37
2022-10-22T18:23:21.156Z,39.33
2022-10-22T18:25:48.953Z,40.53
2022-10-22T18:28:17.133Z,42.10
2022-10-22T18:30:44.383Z,38.67
2022-10-22T18:33:12.166Z,35.40
2022-10-22T18:35:38.998Z,37.87
2022-10-22T18:38:05.821Z,33.97
2022-10-22T18:40:32.881Z,39.70
2022-10-22T18:42:59.697Z,30.57
2022-10-22T18:45:26.827Z,32.60
2022-10-22T18:47:53.669Z,29.40
2022-10-22T18:50:20.513Z,33.20
2022-10-22T18:52:47.652Z,30.30
2022-10-22T18:55:14.473Z,25.90
2022-10-22T18:57:41.293Z,22.23
2022-10-22T19:00:08.523Z,22.67
2022-10-22T19:02:35.287Z,25.50
2022-10-22T19:05:02.162Z,22.87
2022-10-22T19:07:28.902Z,22.70
2022-10-22T19:09:55.735Z,25.47
2022-10-22T19:12:22.490Z,24.50
2022-10-22T19:14:49.838Z,29.43
2022-10-22T19:17:16.649Z,28.93
2022-10-22T19:19:44.186Z,25.67
2022-10-22T19:22:11.008Z,26.87
2022-10-22T19:24:37.877Z,25.90
2022-10-22T19:27:04.689Z,32.20
2022-10-22T19:29:31.553Z,22.20
2022-10-22T19:31:58.399Z,24.27
2022-10-22T19:34:25.348Z,26.13
2022-10-22T19:36:52.146Z,24.87
2022-10-22T19:39:19.659Z,28.37
2022-10-22T19:41:46.642Z,24.23
2022-10-22T19:44:13.618Z,25.00
2022-10-22T19:46:40.449Z,28.03
2022-10-22T19:49:07.273Z,28.57
2022-10-22T19:51:34.602Z,30.77
2022-10-22T19:54:02.871Z,34.97
2022-10-22T19:56:30.014Z,29.70
2022-10-22T19:58:56.811Z,28.97
2022-10-22T20:01:24.154Z,26.37
2022-10-22T20:03:50.985Z,31.37
2022-10-22T20:06:18.596Z,28.77
2022-10-22T20:08:45.810Z,28.90
2022-10-22T20:11:17.344Z,27.20
2022-10-22T20:13:46.583Z,28.10
2022-10-22T20:16:17.797Z,26.40
2022-10-22T20:18:44.559Z,25.10
2022-10-22T20:21:15.395Z,26.47
2022-10-22T20:23:42.850Z,25.67
2022-10-22T20:26:09.908Z,25.37
2022-10-22T20:28:37.768Z,21.47
2022-10-22T20:31:11.379Z,22.13
2022-10-22T20:33:38.616Z,21.07
2022-10-22T20:36:07.242Z,26.27
2022-10-22T20:38:34.407Z,27.00
2022-10-22T20:41:05.563Z,22.97
2022-10-22T20:43:33.866Z,24.53
2022-10-22T20:46:01.976Z,26.77
2022-10-22T20:48:31.435Z,29.03
2022-10-22T20:50:59.024Z,28.70
2022-10-22T20:53:26.552Z,29.40
2022-10-22T20:55:56.318Z,25.13
2022-10-22T20:58:25.941Z,25.90
2022-10-22T21:00:55.142Z,29.07
2022-10-22T21:03:22.407Z,36.13
2022-10-22T21:05:50.078Z,29.00
2022-10-22T21:08:18.238Z,28.80
2022-10-22T21:10:46.557Z,28.53
2022-10-22T21:13:14.280Z,27.43
2022-10-22T21:15:42.581Z,32.23
2022-10-22T21:18:09.610Z,31.83
2022-10-22T21:20:39.136Z,27.87
2022-10-22T21:23:07.085Z,28.93
2022-10-22T21:25:34.588Z,28.97
2022-10-22T21:28:01.871Z,23.67
2022-10-22T21:30:28.633Z,27.20
2022-10-22T21:32:57.243Z,24.50
2022-10-22T21:35:25.933Z,25.67
2022-10-22T21:37:52.969Z,26.90
2022-10-22T21:40:20.291Z,27.13
2022-10-22T21:42:47.040Z,24.60
2022-10-22T21:45:16.453Z,26.10
2022-10-22T21:47:45.509Z,23.13
2022-10-22T21:50:12.903Z,28.07
2022-10-22T21:52:39.791Z,27.30
2022-10-22T21:55:06.690Z,27.63
2022-10-22T21:57:33.702Z,22.60
2022-10-22T22:00:00.825Z,29.10
2022-10-22T22:02:29.378Z,22.97
2022-10-22T22:04:56.950Z,23.97
2022-10-22T22:07:24.102Z,23.13
2022-10-22T22:09:51.806Z,23.20
2022-10-22T22:12:21.190Z,20.77
2022-10-22T22:14:49.217Z,28.63
2022-10-22T22:17:16.811Z,25.00
2022-10-22T22:19:43.856Z,27.47
2022-10-22T22:22:10.940Z,27.47
2022-10-22T22:24:38.533Z,25.60
2022-10-22T22:27:05.839Z,28.90
2022-10-22T22:29:33.038Z,39.63
2022-10-22T22:32:00.399Z,33.07
2022-10-22T22:34:28.051Z,24.63
2022-10-22T22:36:55.021Z,22.80
2022-10-22T22:39:25.860Z,24.17
2022-10-22T22:41:52.701Z,28.07
2022-10-22T22:44:19.821Z,29.03
2022-10-22T22:46:46.560Z,23.87
2022-10-22T22:49:14.211Z,30.53
2022-10-22T22:51:41.006Z,36.13
2022-10-22T22:54:08.810Z,32.37
2022-10-22T22:56:36.842Z,23.20
2022-10-22T22:59:04.977Z,26.33
2022-10-22T23:01:36.505Z,22.53
2022-10-22T23:04:05.160Z,26.30
2022-10-22T23:06:33.217Z,26.23
2022-10-22T23:09:00.445Z,25.10
2022-10-22T23:11:27.706Z,26.40
2022-10-22T23:13:56.104Z,34.83
2022-10-22T23:16:24.709Z,29.87
2022-10-22T23:18:52.677Z,26.67
2022-10-22T23:21:21.561Z,33.23
2022-10-22T23:23:49.727Z,26.80
2022-10-22T23:26:21.362Z,30.60
2022-10-22T23:28:48.182Z,31.73
2022-10-22T23:31:16.107Z,26.17
2022-10-22T23:33:43.286Z,32.43
2022-10-22T23:36:10.835Z,26.27
2022-10-22T23:38:38.755Z,27.47
2022-10-22T23:41:06.141Z,29.27
2022-10-22T23:43:36.193Z,22.10
2022-10-22T23:46:03.918Z,24.97
2022-10-22T23:48:30.662Z,24.63
2022-10-22T23:50:57.520Z,29.17
2022-10-22T23:53:24.369Z,28.83
2022-10-22T23:55:51.162Z,24.67
2022-10-22T23:58:17.907Z,33.10
